CTV907 WIGG-WIII
Flight info
| Callsign | CTV907 |
|---|---|
| Flight time | 0h 56m |
| Altitude | 27000 |
| Route | TOLIT W19 TKG |
| Aircraft | A320/M-SDE2E3FGHIRWY/LB1 |
Departure
| Time | 2026-05-07 09:40 |
|---|---|
| Airport | Fatmawati Soekarno Airport (WIGG) |
Arrival
| Time | 2026-05-07 10:36 |
|---|---|
| Airport | Soekarno-Hatta International Airport (WIII) |
| Time | Latitude | Longitude | Altitude | Speed | Heading |
|---|---|---|---|---|---|
| 2026-05-07 09:10 | -3.86051 | 102.33797 | 73 ft | 0 kts | 46° |
| 2026-05-07 09:35 | -3.86053 | 102.33805 | 72 ft | 3 kts | 108° |
| 2026-05-07 09:36 | -3.86093 | 102.33815 | 72 ft | 8 kts | 165° |
| 2026-05-07 09:36 | -3.86130 | 102.33850 | 68 ft | 7 kts | 133° |
| 2026-05-07 09:36 | -3.86170 | 102.33881 | 68 ft | 7 kts | 173° |
| 2026-05-07 09:36 | -3.86201 | 102.33861 | 68 ft | 6 kts | 223° |
| 2026-05-07 09:37 | -3.86244 | 102.33821 | 66 ft | 8 kts | 223° |
| 2026-05-07 09:37 | -3.86251 | 102.33768 | 77 ft | 12 kts | 299° |
| 2026-05-07 09:37 | -3.86178 | 102.33687 | 78 ft | 19 kts | 313° |
| 2026-05-07 09:37 | -3.86080 | 102.33582 | 83 ft | 21 kts | 313° |
| 2026-05-07 09:38 | -3.85969 | 102.33464 | 81 ft | 25 kts | 313° |
| 2026-05-07 09:38 | -3.85853 | 102.33340 | 81 ft | 25 kts | 314° |
| 2026-05-07 09:38 | -3.85774 | 102.33251 | 77 ft | 13 kts | 301° |
| 2026-05-07 09:38 | -3.85730 | 102.33180 | 70 ft | 8 kts | 344° |
| 2026-05-07 09:39 | -3.85724 | 102.33202 | 69 ft | 4 kts | 127° |
| 2026-05-07 09:39 | -3.85735 | 102.33214 | 75 ft | 0 kts | 133° |
| 2026-05-07 09:39 | -3.85780 | 102.33263 | 72 ft | 36 kts | 133° |
| 2026-05-07 09:40 | -3.86131 | 102.33634 | 81 ft | 107 kts | 133° |
| 2026-05-07 09:40 | -3.86780 | 102.34319 | 100 ft | 159 kts | 134° |
| 2026-05-07 09:40 | -3.87538 | 102.35113 | 802 ft | 156 kts | 135° |
| 2026-05-07 09:40 | -3.88279 | 102.35909 | 1441 ft | 160 kts | 135° |
| 2026-05-07 09:41 | -3.89086 | 102.36778 | 1745 ft | 181 kts | 135° |
| 2026-05-07 09:41 | -3.89994 | 102.37757 | 1980 ft | 203 kts | 134° |
| 2026-05-07 09:41 | -3.91013 | 102.38858 | 2238 ft | 229 kts | 133° |
| 2026-05-07 09:41 | -3.92151 | 102.40084 | 2617 ft | 252 kts | 133° |
| 2026-05-07 09:42 | -3.93383 | 102.41410 | 3233 ft | 266 kts | 133° |
| 2026-05-07 09:42 | -3.94584 | 102.42804 | 4041 ft | 271 kts | 122° |
| 2026-05-07 09:42 | -3.95271 | 102.44563 | 4876 ft | 275 kts | 98° |
| 2026-05-07 09:42 | -3.95268 | 102.46484 | 5728 ft | 278 kts | 85° |
| 2026-05-07 09:43 | -3.95123 | 102.48424 | 6588 ft | 281 kts | 85° |
| 2026-05-07 09:43 | -3.95042 | 102.50390 | 7408 ft | 285 kts | 94° |
| 2026-05-07 09:43 | -3.95430 | 102.52340 | 8201 ft | 288 kts | 110° |
| 2026-05-07 09:43 | -3.96279 | 102.54168 | 9004 ft | 291 kts | 116° |
| 2026-05-07 09:44 | -3.97188 | 102.55991 | 9774 ft | 294 kts | 116° |
| 2026-05-07 09:44 | -3.98106 | 102.57837 | 10480 ft | 301 kts | 116° |
| 2026-05-07 09:44 | -3.99071 | 102.59787 | 10703 ft | 324 kts | 116° |
| 2026-05-07 09:44 | -4.00104 | 102.61874 | 10966 ft | 341 kts | 116° |
| 2026-05-07 09:45 | -4.01172 | 102.64029 | 11501 ft | 349 kts | 116° |
| 2026-05-07 09:45 | -4.02256 | 102.66223 | 11906 ft | 355 kts | 116° |
| 2026-05-07 09:45 | -4.03366 | 102.68473 | 12056 ft | 365 kts | 116° |
| 2026-05-07 09:45 | -4.04495 | 102.70767 | 12348 ft | 369 kts | 116° |
| 2026-05-07 09:46 | -4.05633 | 102.73084 | 12689 ft | 372 kts | 116° |
| 2026-05-07 09:46 | -4.06777 | 102.75405 | 13081 ft | 372 kts | 115° |
| 2026-05-07 09:46 | -4.07926 | 102.77731 | 13474 ft | 373 kts | 115° |
| 2026-05-07 09:46 | -4.09080 | 102.80067 | 13806 ft | 376 kts | 115° |
| 2026-05-07 09:47 | -4.10236 | 102.82415 | 14139 ft | 377 kts | 115° |
| 2026-05-07 09:47 | -4.11396 | 102.84770 | 14502 ft | 378 kts | 115° |
| 2026-05-07 09:47 | -4.12564 | 102.87137 | 14866 ft | 380 kts | 115° |
| 2026-05-07 09:47 | -4.13740 | 102.89515 | 15210 ft | 381 kts | 115° |
| 2026-05-07 09:48 | -4.14914 | 102.91894 | 15530 ft | 382 kts | 115° |
| 2026-05-07 09:48 | -4.16095 | 102.94291 | 15843 ft | 384 kts | 115° |
| 2026-05-07 09:48 | -4.17264 | 102.96660 | 16154 ft | 385 kts | 115° |
| 2026-05-07 09:48 | -4.18457 | 102.99070 | 16483 ft | 387 kts | 115° |
| 2026-05-07 09:49 | -4.19655 | 103.01491 | 16814 ft | 389 kts | 115° |
| 2026-05-07 09:49 | -4.20857 | 103.03921 | 17154 ft | 390 kts | 115° |
| 2026-05-07 09:49 | -4.22061 | 103.06360 | 17482 ft | 392 kts | 115° |
| 2026-05-07 09:49 | -4.23274 | 103.08816 | 17824 ft | 394 kts | 115° |
| 2026-05-07 09:50 | -4.24489 | 103.11280 | 18165 ft | 395 kts | 115° |
| 2026-05-07 09:50 | -4.25708 | 103.13751 | 18496 ft | 396 kts | 115° |
| 2026-05-07 09:50 | -4.26934 | 103.16230 | 18805 ft | 398 kts | 115° |
| 2026-05-07 09:50 | -4.28162 | 103.18720 | 19113 ft | 400 kts | 115° |
| 2026-05-07 09:51 | -4.29393 | 103.21224 | 19389 ft | 402 kts | 115° |
| 2026-05-07 09:51 | -4.30632 | 103.23740 | 19712 ft | 404 kts | 115° |
| 2026-05-07 09:51 | -4.31876 | 103.26266 | 20025 ft | 405 kts | 115° |
| 2026-05-07 09:51 | -4.33126 | 103.28803 | 20316 ft | 407 kts | 115° |
| 2026-05-07 09:52 | -4.34380 | 103.31348 | 20606 ft | 408 kts | 115° |
| 2026-05-07 09:52 | -4.35634 | 103.33900 | 20882 ft | 409 kts | 115° |
| 2026-05-07 09:52 | -4.36894 | 103.36462 | 21142 ft | 411 kts | 115° |
| 2026-05-07 09:52 | -4.38161 | 103.39033 | 21402 ft | 413 kts | 115° |
| 2026-05-07 09:53 | -4.39434 | 103.41616 | 21672 ft | 414 kts | 115° |
| 2026-05-07 09:53 | -4.40709 | 103.44203 | 21936 ft | 416 kts | 115° |
| 2026-05-07 09:53 | -4.41989 | 103.46806 | 22201 ft | 417 kts | 115° |
| 2026-05-07 09:53 | -4.43272 | 103.49420 | 22458 ft | 419 kts | 115° |
| 2026-05-07 09:54 | -4.44545 | 103.52011 | 22719 ft | 420 kts | 115° |
| 2026-05-07 09:54 | -4.45855 | 103.54675 | 22983 ft | 422 kts | 115° |
| 2026-05-07 09:54 | -4.47138 | 103.57287 | 23236 ft | 424 kts | 115° |
| 2026-05-07 09:54 | -4.48442 | 103.59940 | 23498 ft | 425 kts | 115° |
| 2026-05-07 09:55 | -4.49767 | 103.62632 | 23759 ft | 426 kts | 115° |
| 2026-05-07 09:55 | -4.51067 | 103.65270 | 24014 ft | 428 kts | 115° |
| 2026-05-07 09:55 | -4.52391 | 103.67949 | 24266 ft | 430 kts | 115° |
| 2026-05-07 09:55 | -4.53718 | 103.70638 | 24534 ft | 431 kts | 115° |
| 2026-05-07 09:56 | -4.55040 | 103.73336 | 24798 ft | 432 kts | 115° |
| 2026-05-07 09:56 | -4.56371 | 103.76045 | 25065 ft | 434 kts | 115° |
| 2026-05-07 09:56 | -4.57703 | 103.78761 | 25331 ft | 435 kts | 115° |
| 2026-05-07 09:56 | -4.59041 | 103.81485 | 25598 ft | 436 kts | 115° |
| 2026-05-07 09:57 | -4.60460 | 103.84177 | 25864 ft | 438 kts | 117° |
| 2026-05-07 09:57 | -4.61978 | 103.86827 | 26119 ft | 439 kts | 119° |
| 2026-05-07 09:57 | -4.63558 | 103.89453 | 26372 ft | 441 kts | 120° |
| 2026-05-07 09:57 | -4.65165 | 103.92074 | 26632 ft | 442 kts | 120° |
| 2026-05-07 09:58 | -4.66770 | 103.94705 | 26783 ft | 442 kts | 120° |
| 2026-05-07 09:58 | -4.68333 | 103.97307 | 26814 ft | 431 kts | 120° |
| 2026-05-07 09:58 | -4.69852 | 103.99873 | 26813 ft | 426 kts | 119° |
| 2026-05-07 09:58 | -4.71347 | 104.02431 | 26813 ft | 425 kts | 119° |
| 2026-05-07 09:59 | -4.72833 | 104.04989 | 26813 ft | 424 kts | 119° |
| 2026-05-07 09:59 | -4.74319 | 104.07544 | 26813 ft | 424 kts | 119° |
| 2026-05-07 09:59 | -4.75805 | 104.10096 | 26813 ft | 424 kts | 119° |
| 2026-05-07 09:59 | -4.77290 | 104.12646 | 26814 ft | 423 kts | 119° |
| 2026-05-07 10:00 | -4.78776 | 104.15193 | 26813 ft | 423 kts | 119° |
| 2026-05-07 10:00 | -4.80263 | 104.17738 | 26813 ft | 423 kts | 119° |
| 2026-05-07 10:00 | -4.81755 | 104.20279 | 26813 ft | 423 kts | 119° |
| 2026-05-07 10:00 | -4.83247 | 104.22819 | 26815 ft | 423 kts | 119° |
| 2026-05-07 10:01 | -4.84737 | 104.25360 | 26817 ft | 423 kts | 119° |
| 2026-05-07 10:01 | -4.86227 | 104.27900 | 26818 ft | 422 kts | 119° |
| 2026-05-07 10:01 | -4.87710 | 104.30440 | 26818 ft | 422 kts | 119° |
| 2026-05-07 10:01 | -4.89191 | 104.32979 | 26818 ft | 422 kts | 119° |
| 2026-05-07 10:02 | -4.90671 | 104.35517 | 26819 ft | 422 kts | 119° |
| 2026-05-07 10:02 | -4.92156 | 104.38053 | 26821 ft | 422 kts | 119° |
| 2026-05-07 10:02 | -4.93620 | 104.40551 | 26820 ft | 421 kts | 119° |
| 2026-05-07 10:02 | -4.95104 | 104.43083 | 26821 ft | 421 kts | 119° |
| 2026-05-07 10:03 | -4.96582 | 104.45615 | 26820 ft | 421 kts | 119° |
| 2026-05-07 10:03 | -4.98057 | 104.48148 | 26819 ft | 420 kts | 119° |
| 2026-05-07 10:03 | -4.99529 | 104.50679 | 26819 ft | 420 kts | 119° |
| 2026-05-07 10:03 | -5.01001 | 104.53211 | 26818 ft | 420 kts | 119° |
| 2026-05-07 10:04 | -5.02474 | 104.55742 | 26816 ft | 420 kts | 119° |
| 2026-05-07 10:04 | -5.03949 | 104.58270 | 26814 ft | 420 kts | 119° |
| 2026-05-07 10:04 | -5.05421 | 104.60799 | 26813 ft | 420 kts | 119° |
| 2026-05-07 10:04 | -5.06892 | 104.63330 | 26811 ft | 420 kts | 119° |
| 2026-05-07 10:05 | -5.08359 | 104.65858 | 26809 ft | 420 kts | 119° |
| 2026-05-07 10:05 | -5.09828 | 104.68389 | 26809 ft | 420 kts | 119° |
| 2026-05-07 10:05 | -5.11300 | 104.70921 | 26808 ft | 420 kts | 119° |
| 2026-05-07 10:05 | -5.12773 | 104.73451 | 26808 ft | 420 kts | 119° |
| 2026-05-07 10:06 | -5.14245 | 104.75981 | 26808 ft | 420 kts | 119° |
| 2026-05-07 10:06 | -5.15715 | 104.78513 | 26807 ft | 420 kts | 119° |
| 2026-05-07 10:06 | -5.17186 | 104.81046 | 26806 ft | 420 kts | 119° |
| 2026-05-07 10:06 | -5.18655 | 104.83574 | 26805 ft | 420 kts | 119° |
| 2026-05-07 10:07 | -5.20135 | 104.86111 | 26803 ft | 420 kts | 119° |
| 2026-05-07 10:07 | -5.21615 | 104.88642 | 26803 ft | 421 kts | 119° |
| 2026-05-07 10:07 | -5.23093 | 104.91174 | 26803 ft | 421 kts | 119° |
| 2026-05-07 10:07 | -5.24565 | 104.93704 | 26803 ft | 421 kts | 119° |
| 2026-05-07 10:08 | -5.26037 | 104.96240 | 26803 ft | 421 kts | 119° |
| 2026-05-07 10:08 | -5.27513 | 104.98782 | 26803 ft | 421 kts | 119° |
| 2026-05-07 10:08 | -5.28985 | 105.01313 | 26803 ft | 421 kts | 119° |
| 2026-05-07 10:08 | -5.30461 | 105.03852 | 26803 ft | 421 kts | 119° |
| 2026-05-07 10:09 | -5.31936 | 105.06390 | 26804 ft | 421 kts | 119° |
| 2026-05-07 10:09 | -5.33410 | 105.08929 | 26804 ft | 421 kts | 119° |
| 2026-05-07 10:09 | -5.34884 | 105.11469 | 26805 ft | 421 kts | 119° |
| 2026-05-07 10:09 | -5.36360 | 105.14008 | 26805 ft | 421 kts | 119° |
| 2026-05-07 10:10 | -5.37836 | 105.16549 | 26806 ft | 422 kts | 119° |
| 2026-05-07 10:10 | -5.39313 | 105.19090 | 26804 ft | 422 kts | 119° |
| 2026-05-07 10:10 | -5.40790 | 105.21631 | 26805 ft | 421 kts | 119° |
| 2026-05-07 10:10 | -5.42265 | 105.24174 | 26806 ft | 422 kts | 119° |
| 2026-05-07 10:11 | -5.43739 | 105.26716 | 26804 ft | 422 kts | 119° |
| 2026-05-07 10:11 | -5.45214 | 105.29258 | 26805 ft | 421 kts | 119° |
| 2026-05-07 10:11 | -5.46690 | 105.31799 | 26805 ft | 421 kts | 119° |
| 2026-05-07 10:11 | -5.48167 | 105.34339 | 26805 ft | 421 kts | 119° |
| 2026-05-07 10:12 | -5.49641 | 105.36877 | 26806 ft | 422 kts | 119° |
| 2026-05-07 10:12 | -5.51104 | 105.39397 | 26805 ft | 422 kts | 119° |
| 2026-05-07 10:12 | -5.52576 | 105.41935 | 26803 ft | 422 kts | 119° |
| 2026-05-07 10:12 | -5.54051 | 105.44479 | 26803 ft | 422 kts | 119° |
| 2026-05-07 10:13 | -5.55527 | 105.47025 | 26803 ft | 422 kts | 119° |
| 2026-05-07 10:13 | -5.57004 | 105.49569 | 26804 ft | 422 kts | 119° |
| 2026-05-07 10:13 | -5.58480 | 105.52115 | 26804 ft | 422 kts | 119° |
| 2026-05-07 10:13 | -5.59958 | 105.54660 | 26804 ft | 422 kts | 119° |
| 2026-05-07 10:14 | -5.61437 | 105.57208 | 26804 ft | 422 kts | 119° |
| 2026-05-07 10:14 | -5.62916 | 105.59756 | 26804 ft | 422 kts | 119° |
| 2026-05-07 10:14 | -5.64393 | 105.62306 | 26805 ft | 422 kts | 118° |
| 2026-05-07 10:14 | -5.65867 | 105.64857 | 26805 ft | 422 kts | 118° |
| 2026-05-07 10:15 | -5.67342 | 105.67408 | 26805 ft | 423 kts | 118° |
| 2026-05-07 10:15 | -5.68819 | 105.69959 | 26806 ft | 423 kts | 118° |
| 2026-05-07 10:15 | -5.70300 | 105.72508 | 26806 ft | 423 kts | 119° |
| 2026-05-07 10:15 | -5.71784 | 105.75056 | 26799 ft | 423 kts | 119° |
| 2026-05-07 10:16 | -5.73263 | 105.77599 | 26355 ft | 419 kts | 119° |
| 2026-05-07 10:16 | -5.74721 | 105.80114 | 25856 ft | 414 kts | 118° |
| 2026-05-07 10:16 | -5.76164 | 105.82600 | 25353 ft | 410 kts | 118° |
| 2026-05-07 10:16 | -5.77591 | 105.85065 | 24853 ft | 407 kts | 118° |
| 2026-05-07 10:17 | -5.79002 | 105.87511 | 24354 ft | 403 kts | 118° |
| 2026-05-07 10:17 | -5.80400 | 105.89940 | 23853 ft | 400 kts | 118° |
| 2026-05-07 10:17 | -5.81790 | 105.92350 | 23352 ft | 397 kts | 118° |
| 2026-05-07 10:17 | -5.83172 | 105.94740 | 22853 ft | 394 kts | 118° |
| 2026-05-07 10:18 | -5.84545 | 105.97110 | 22351 ft | 391 kts | 118° |
| 2026-05-07 10:18 | -5.85907 | 105.99462 | 21847 ft | 388 kts | 118° |
| 2026-05-07 10:18 | -5.87257 | 106.01797 | 21355 ft | 386 kts | 118° |
| 2026-05-07 10:18 | -5.88600 | 106.04119 | 20850 ft | 383 kts | 118° |
| 2026-05-07 10:19 | -5.89933 | 106.06424 | 20358 ft | 381 kts | 119° |
| 2026-05-07 10:19 | -5.91257 | 106.08711 | 19905 ft | 377 kts | 119° |
| 2026-05-07 10:19 | -5.92573 | 106.10990 | 19294 ft | 378 kts | 119° |
| 2026-05-07 10:19 | -5.93895 | 106.13279 | 18580 ft | 381 kts | 119° |
| 2026-05-07 10:20 | -5.95216 | 106.15561 | 17756 ft | 374 kts | 119° |
| 2026-05-07 10:20 | -5.96497 | 106.17774 | 16932 ft | 368 kts | 119° |
| 2026-05-07 10:20 | -5.97786 | 106.20001 | 16099 ft | 362 kts | 119° |
| 2026-05-07 10:20 | -5.98620 | 106.21444 | 15519 ft | 359 kts | 119° |
| 2026-05-07 10:21 | -6.00271 | 106.24301 | 14349 ft | 356 kts | 119° |
| 2026-05-07 10:21 | -6.01500 | 106.26437 | 13473 ft | 351 kts | 119° |
| 2026-05-07 10:21 | -6.02715 | 106.28547 | 12594 ft | 347 kts | 119° |
| 2026-05-07 10:21 | -6.03999 | 106.30579 | 11711 ft | 342 kts | 121° |
| 2026-05-07 10:22 | -6.04876 | 106.32749 | 11000 ft | 332 kts | 99° |
| 2026-05-07 10:22 | -6.04821 | 106.35001 | 10501 ft | 318 kts | 76° |
| 2026-05-07 10:22 | -6.03897 | 106.36959 | 9999 ft | 308 kts | 52° |
| 2026-05-07 10:22 | -6.02865 | 106.37955 | 9662 ft | 302 kts | 35° |
| 2026-05-07 10:23 | -6.00964 | 106.38751 | 9162 ft | 296 kts | 10° |
| 2026-05-07 10:23 | -5.98936 | 106.38850 | 8661 ft | 289 kts | 1° |
| 2026-05-07 10:23 | -5.96954 | 106.38813 | 8161 ft | 281 kts | 0° |
| 2026-05-07 10:23 | -5.95031 | 106.38763 | 7724 ft | 273 kts | 0° |
| 2026-05-07 10:24 | -5.93162 | 106.38710 | 7272 ft | 265 kts | 0° |
| 2026-05-07 10:24 | -5.91352 | 106.38577 | 6820 ft | 259 kts | 347° |
| 2026-05-07 10:24 | -5.89758 | 106.37779 | 6373 ft | 259 kts | 321° |
| 2026-05-07 10:24 | -5.88649 | 106.36354 | 5919 ft | 263 kts | 293° |
| 2026-05-07 10:25 | -5.88289 | 106.34617 | 5701 ft | 253 kts | 266° |
| 2026-05-07 10:25 | -5.88695 | 106.32873 | 5585 ft | 276 kts | 241° |
| 2026-05-07 10:25 | -5.89949 | 106.31352 | 5456 ft | 287 kts | 212° |
| 2026-05-07 10:25 | -5.91784 | 106.30617 | 5331 ft | 289 kts | 184° |
| 2026-05-07 10:26 | -5.93802 | 106.30682 | 5236 ft | 292 kts | 173° |
| 2026-05-07 10:26 | -5.95836 | 106.30833 | 5235 ft | 294 kts | 174° |
| 2026-05-07 10:26 | -5.97878 | 106.30962 | 5236 ft | 294 kts | 174° |
| 2026-05-07 10:26 | -5.99918 | 106.31082 | 5234 ft | 294 kts | 174° |
| 2026-05-07 10:27 | -6.01963 | 106.31200 | 5236 ft | 294 kts | 175° |
| 2026-05-07 10:27 | -6.04002 | 106.31320 | 5236 ft | 294 kts | 173° |
| 2026-05-07 10:27 | -6.06021 | 106.31624 | 5237 ft | 294 kts | 168° |
| 2026-05-07 10:27 | -6.08033 | 106.31977 | 5237 ft | 293 kts | 168° |
| 2026-05-07 10:28 | -6.10044 | 106.32332 | 5235 ft | 293 kts | 168° |
| 2026-05-07 10:28 | -6.12053 | 106.32689 | 5234 ft | 292 kts | 168° |
| 2026-05-07 10:28 | -6.14058 | 106.33044 | 5237 ft | 293 kts | 168° |
| 2026-05-07 10:28 | -6.16067 | 106.33399 | 5236 ft | 293 kts | 168° |
| 2026-05-07 10:29 | -6.18077 | 106.33753 | 5238 ft | 293 kts | 168° |
| 2026-05-07 10:29 | -6.20031 | 106.34287 | 5042 ft | 288 kts | 149° |
| 2026-05-07 10:29 | -6.21435 | 106.35617 | 4740 ft | 273 kts | 122° |
| 2026-05-07 10:30 | -6.23292 | 106.38622 | 4298 ft | 233 kts | 116° |
| 2026-05-07 10:30 | -6.23661 | 106.40128 | 4304 ft | 216 kts | 89° |
| 2026-05-07 10:30 | -6.23347 | 106.41544 | 4315 ft | 202 kts | 69° |
| 2026-05-07 10:30 | -6.22831 | 106.42834 | 4325 ft | 197 kts | 70° |
| 2026-05-07 10:31 | -6.22328 | 106.44093 | 4208 ft | 189 kts | 70° |
| 2026-05-07 10:31 | -6.21846 | 106.45301 | 3974 ft | 183 kts | 70° |
| 2026-05-07 10:31 | -6.21380 | 106.46473 | 3745 ft | 179 kts | 70° |
| 2026-05-07 10:31 | -6.20925 | 106.47616 | 3512 ft | 173 kts | 70° |
| 2026-05-07 10:32 | -6.20482 | 106.48730 | 3287 ft | 170 kts | 70° |
| 2026-05-07 10:32 | -6.20048 | 106.49818 | 3061 ft | 166 kts | 70° |
| 2026-05-07 10:32 | -6.19623 | 106.50886 | 2845 ft | 162 kts | 69° |
| 2026-05-07 10:32 | -6.19220 | 106.51897 | 2639 ft | 151 kts | 69° |
| 2026-05-07 10:33 | -6.18833 | 106.52865 | 2436 ft | 147 kts | 69° |
| 2026-05-07 10:33 | -6.18457 | 106.53814 | 2248 ft | 145 kts | 69° |
| 2026-05-07 10:33 | -6.18083 | 106.54755 | 2055 ft | 145 kts | 68° |
| 2026-05-07 10:33 | -6.17711 | 106.55688 | 1873 ft | 144 kts | 68° |
| 2026-05-07 10:34 | -6.17341 | 106.56617 | 1683 ft | 143 kts | 68° |
| 2026-05-07 10:34 | -6.16971 | 106.57545 | 1485 ft | 143 kts | 68° |
| 2026-05-07 10:34 | -6.16602 | 106.58473 | 1295 ft | 143 kts | 67° |
| 2026-05-07 10:34 | -6.16238 | 106.59387 | 1101 ft | 143 kts | 67° |
| 2026-05-07 10:35 | -6.15869 | 106.60314 | 922 ft | 143 kts | 67° |
| 2026-05-07 10:35 | -6.15500 | 106.61238 | 730 ft | 143 kts | 67° |
| 2026-05-07 10:35 | -6.15132 | 106.62164 | 542 ft | 143 kts | 67° |
| 2026-05-07 10:35 | -6.14764 | 106.63089 | 334 ft | 143 kts | 67° |
| 2026-05-07 10:36 | -6.14394 | 106.64016 | 155 ft | 143 kts | 67° |
| 2026-05-07 10:36 | -6.14029 | 106.64929 | 44 ft | 135 kts | 67° |
| 2026-05-07 10:36 | -6.13726 | 106.65690 | 39 ft | 94 kts | 68° |
| 2026-05-07 10:36 | -6.13547 | 106.66132 | 40 ft | 32 kts | 66° |
| 2026-05-07 10:37 | -6.13449 | 106.66246 | 41 ft | 9 kts | 37° |
| 2026-05-07 10:37 | -6.13400 | 106.66282 | 40 ft | 8 kts | 37° |
| 2026-05-07 10:37 | -6.13352 | 106.66308 | 40 ft | 7 kts | 9° |
| 2026-05-07 10:37 | -6.13312 | 106.66287 | 39 ft | 7 kts | 304° |
| 2026-05-07 10:38 | -6.13310 | 106.66243 | 39 ft | 9 kts | 248° |
| 2026-05-07 10:38 | -6.13352 | 106.66137 | 39 ft | 18 kts | 248° |
| 2026-05-07 10:38 | -6.13397 | 106.66025 | 38 ft | 17 kts | 248° |
| 2026-05-07 10:38 | -6.13438 | 106.65922 | 37 ft | 15 kts | 248° |
| 2026-05-07 10:39 | -6.13475 | 106.65829 | 38 ft | 14 kts | 248° |
| 2026-05-07 10:39 | -6.13509 | 106.65745 | 38 ft | 12 kts | 248° |
| 2026-05-07 10:39 | -6.13538 | 106.65671 | 38 ft | 11 kts | 248° |
| 2026-05-07 10:39 | -6.13566 | 106.65602 | 38 ft | 13 kts | 248° |
| 2026-05-07 10:40 | -6.13600 | 106.65516 | 38 ft | 13 kts | 248° |
| 2026-05-07 10:40 | -6.13632 | 106.65437 | 39 ft | 12 kts | 248° |
| 2026-05-07 10:40 | -6.13658 | 106.65364 | 37 ft | 10 kts | 262° |
| 2026-05-07 10:40 | -6.13621 | 106.65315 | 39 ft | 9 kts | 337° |
| 2026-05-07 10:41 | -6.13561 | 106.65290 | 38 ft | 12 kts | 338° |
| 2026-05-07 10:41 | -6.13487 | 106.65262 | 38 ft | 11 kts | 339° |
| 2026-05-07 10:41 | -6.13420 | 106.65237 | 38 ft | 10 kts | 339° |
| 2026-05-07 10:41 | -6.13363 | 106.65214 | 38 ft | 9 kts | 339° |
| 2026-05-07 10:42 | -6.13314 | 106.65178 | 38 ft | 8 kts | 307° |
| 2026-05-07 10:42 | -6.13281 | 106.65134 | 38 ft | 7 kts | 307° |
| 2026-05-07 10:42 | -6.13249 | 106.65102 | 38 ft | 6 kts | 326° |
| 2026-05-07 10:42 | -6.13214 | 106.65084 | 38 ft | 5 kts | 337° |
| 2026-05-07 10:43 | -6.13190 | 106.65091 | 38 ft | 3 kts | 53° |
| 2026-05-07 10:43 | -6.13180 | 106.65121 | 38 ft | 3 kts | 72° |
| 2026-05-07 10:43 | -6.13177 | 106.65132 | 36 ft | 1 kts | 72° |
| 2026-05-07 10:43 | -6.13176 | 106.65134 | 38 ft | 0 kts | 72° |
| 2026-05-07 10:47 | -6.13176 | 106.65135 | 38 ft | 0 kts | 73° |